createdAt,value
2018-09-09T00:01:07.076Z,1.63
2018-09-09T00:03:35.447Z,1.73
2018-09-09T00:06:05.158Z,2.20
2018-09-09T00:08:33.382Z,1.47
2018-09-09T00:11:01.667Z,1.90
2018-09-09T00:13:29.893Z,1.60
2018-09-09T00:15:58.092Z,1.50
2018-09-09T00:18:26.727Z,1.90
2018-09-09T00:20:55.540Z,1.77
2018-09-09T00:23:23.855Z,1.87
2018-09-09T00:25:52.131Z,1.63
2018-09-09T00:28:22.616Z,1.90
2018-09-09T00:30:50.986Z,1.70
2018-09-09T00:33:19.259Z,1.97
2018-09-09T00:35:47.510Z,2.03
2018-09-09T00:38:15.567Z,2.10
2018-09-09T00:40:43.628Z,2.27
2018-09-09T00:43:17.215Z,2.07
2018-09-09T00:45:45.308Z,1.87
2018-09-09T00:48:13.377Z,1.80
2018-09-09T00:50:46.774Z,1.90
2018-09-09T00:53:20.052Z,2.00
2018-09-09T00:55:48.154Z,2.60
2018-09-09T00:58:16.242Z,2.20
2018-09-09T01:00:49.740Z,1.80
2018-09-09T01:03:17.827Z,2.27
2018-09-09T01:05:45.927Z,2.70
2018-09-09T01:08:14.167Z,1.87
2018-09-09T01:10:42.243Z,2.27
2018-09-09T01:13:10.428Z,2.10
2018-09-09T01:15:38.501Z,2.10
2018-09-09T01:18:06.583Z,2.17
2018-09-09T01:20:34.664Z,2.47
2018-09-09T01:23:02.831Z,2.10
2018-09-09T01:25:30.915Z,2.37
2018-09-09T01:27:59.011Z,2.43
2018-09-09T01:30:27.060Z,2.43
2018-09-09T01:32:55.141Z,2.17
2018-09-09T01:35:23.216Z,2.57
2018-09-09T01:37:51.299Z,1.90
2018-09-09T01:40:19.347Z,1.97
2018-09-09T01:42:47.423Z,2.27
2018-09-09T01:45:15.493Z,2.60
2018-09-09T01:47:49.969Z,2.17
2018-09-09T01:50:18.039Z,2.10
2018-09-09T01:52:46.141Z,2.10
2018-09-09T01:55:14.211Z,2.60
2018-09-09T01:57:42.291Z,1.90
2018-09-09T02:00:10.410Z,1.70
2018-09-09T02:02:38.502Z,2.20
2018-09-09T02:05:06.582Z,3.10
2018-09-09T02:07:34.740Z,2.60
2018-09-09T02:10:02.790Z,2.37
2018-09-09T02:12:30.867Z,2.30
2018-09-09T02:14:58.972Z,2.33
2018-09-09T02:17:27.048Z,2.63
2018-09-09T02:19:55.119Z,2.53
2018-09-09T02:22:23.183Z,2.10
2018-09-09T02:24:51.242Z,2.10
2018-09-09T02:27:19.332Z,2.57
2018-09-09T02:29:47.390Z,2.83
2018-09-09T02:32:15.501Z,2.40
2018-09-09T02:34:43.574Z,2.20
2018-09-09T02:37:17.928Z,3.00
2018-09-09T02:39:46.040Z,2.20
2018-09-09T02:42:14.147Z,2.50
2018-09-09T02:44:42.243Z,2.10
2018-09-09T02:47:10.315Z,2.10
2018-09-09T02:49:38.376Z,2.33
2018-09-09T02:52:06.555Z,2.47
2018-09-09T02:54:34.622Z,2.17
2018-09-09T02:57:02.691Z,1.73
2018-09-09T02:59:30.860Z,3.03
2018-09-09T03:01:58.984Z,2.40
2018-09-09T03:04:27.127Z,2.70
2018-09-09T03:06:55.207Z,2.63
2018-09-09T03:09:23.380Z,2.50
2018-09-09T03:11:51.420Z,2.37
2018-09-09T03:14:19.512Z,2.40
2018-09-09T03:16:47.586Z,2.40
2018-09-09T03:19:15.747Z,2.97
2018-09-09T03:21:43.863Z,2.80
2018-09-09T03:24:11.939Z,2.53
2018-09-09T03:26:40.003Z,2.00
2018-09-09T03:29:08.071Z,2.30
2018-09-09T03:31:36.171Z,2.33
2018-09-09T03:34:04.253Z,2.60
2018-09-09T03:36:32.326Z,2.50
2018-09-09T03:39:00.461Z,2.10
2018-09-09T03:41:28.532Z,2.30
2018-09-09T03:43:56.596Z,2.67
2018-09-09T03:46:24.671Z,2.87
2018-09-09T03:48:52.743Z,3.00
2018-09-09T03:51:20.799Z,2.60
2018-09-09T03:53:48.891Z,2.60
2018-09-09T03:56:16.956Z,2.37
2018-09-09T03:58:45.062Z,2.87
2018-09-09T04:01:13.126Z,3.03
2018-09-09T04:03:41.297Z,2.47
2018-09-09T04:06:09.372Z,2.60
2018-09-09T04:08:37.458Z,2.67
2018-09-09T04:11:08.816Z,2.30
2018-09-09T04:13:37.243Z,3.33
2018-09-09T04:16:05.333Z,2.83
2018-09-09T04:18:33.400Z,2.77
2018-09-09T04:21:01.476Z,2.83
2018-09-09T04:23:29.569Z,2.80
2018-09-09T04:25:57.900Z,3.60
2018-09-09T04:28:25.980Z,2.43
2018-09-09T04:30:54.185Z,2.10
2018-09-09T04:33:22.455Z,2.90
2018-09-09T04:35:50.581Z,2.53
2018-09-09T04:38:18.656Z,2.30
2018-09-09T04:40:46.758Z,2.60
2018-09-09T04:43:14.883Z,2.97
2018-09-09T04:45:42.936Z,2.50
2018-09-09T04:48:11.000Z,2.37
2018-09-09T04:50:39.079Z,2.37
2018-09-09T04:53:07.198Z,2.80
2018-09-09T04:55:35.307Z,2.40
2018-09-09T04:58:03.417Z,2.40
2018-09-09T05:00:31.575Z,3.10
2018-09-09T05:02:59.791Z,4.23
2018-09-09T05:05:27.859Z,3.50
2018-09-09T05:07:55.999Z,3.33
2018-09-09T05:10:24.080Z,3.27
2018-09-09T05:12:52.167Z,3.10
2018-09-09T05:15:20.263Z,3.10
2018-09-09T05:17:48.327Z,3.07
2018-09-09T05:20:16.436Z,2.87
2018-09-09T05:22:44.552Z,2.60
2018-09-09T05:25:12.629Z,3.10
2018-09-09T05:27:40.696Z,2.80
2018-09-09T05:30:08.910Z,3.23
2018-09-09T05:32:36.975Z,2.37
2018-09-09T05:35:05.076Z,2.27
2018-09-09T05:37:33.200Z,2.53
2018-09-09T05:40:01.326Z,3.20
2018-09-09T05:42:29.518Z,2.73
2018-09-09T05:44:57.492Z,2.77
2018-09-09T05:47:25.564Z,2.50
2018-09-09T05:49:53.634Z,2.97
2018-09-09T05:52:21.706Z,3.33
2018-09-09T05:54:49.796Z,2.80
2018-09-09T05:57:17.868Z,3.30
2018-09-09T05:59:45.976Z,2.97
2018-09-09T06:02:14.065Z,2.50
2018-09-09T06:04:42.159Z,2.47
2018-09-09T06:07:10.275Z,3.73
2018-09-09T06:09:38.401Z,2.93
2018-09-09T06:12:06.567Z,3.17
2018-09-09T06:14:34.689Z,2.70
2018-09-09T06:17:02.764Z,3.07
2018-09-09T06:19:30.851Z,3.77
2018-09-09T06:21:58.991Z,3.10
2018-09-09T06:24:27.080Z,3.43
2018-09-09T06:26:55.381Z,4.07
2018-09-09T06:29:23.549Z,4.00
2018-09-09T06:31:51.640Z,3.73
2018-09-09T06:34:19.863Z,4.03
2018-09-09T06:36:48.188Z,3.87
2018-09-09T06:39:16.491Z,3.43
2018-09-09T06:41:44.997Z,5.00
2018-09-09T06:44:14.268Z,4.67
2018-09-09T06:46:42.450Z,5.50
2018-09-09T06:49:11.678Z,4.60
2018-09-09T06:51:40.216Z,4.00
2018-09-09T06:54:08.628Z,5.17
2018-09-09T06:56:37.125Z,6.17
2018-09-09T06:59:05.910Z,5.37
2018-09-09T07:01:34.305Z,4.87
2018-09-09T07:04:03.530Z,5.20
2018-09-09T07:06:31.896Z,5.10
2018-09-09T07:09:00.247Z,6.00
2018-09-09T07:11:28.590Z,4.50
2018-09-09T07:13:56.820Z,4.60
2018-09-09T07:16:25.211Z,4.70
2018-09-09T07:18:54.352Z,3.90
2018-09-09T07:21:22.949Z,4.80
2018-09-09T07:23:51.302Z,5.17
2018-09-09T07:26:19.493Z,5.77
2018-09-09T07:28:47.957Z,5.10
2018-09-09T07:31:16.295Z,6.10
2018-09-09T07:33:44.574Z,7.20
2018-09-09T07:36:12.759Z,6.10
2018-09-09T07:38:40.991Z,5.70
2018-09-09T07:41:09.104Z,6.00
2018-09-09T07:43:37.189Z,6.87
2018-09-09T07:46:05.287Z,6.20
2018-09-09T07:48:33.365Z,6.73
2018-09-09T07:51:01.576Z,6.73
2018-09-09T07:53:29.614Z,6.30
2018-09-09T07:55:57.724Z,5.47
2018-09-09T07:58:25.826Z,5.87
2018-09-09T08:00:53.944Z,5.73
2018-09-09T08:03:22.036Z,5.37
2018-09-09T08:05:50.143Z,5.13
2018-09-09T08:08:18.267Z,4.97
2018-09-09T08:10:46.349Z,5.27
2018-09-09T08:13:14.549Z,5.33
2018-09-09T08:15:42.642Z,5.93
2018-09-09T08:18:10.735Z,4.57
2018-09-09T08:20:38.828Z,4.53
2018-09-09T08:23:06.908Z,4.93
2018-09-09T08:25:35.011Z,4.60
2018-09-09T08:28:03.119Z,4.37
2018-09-09T08:30:31.202Z,4.10
2018-09-09T08:32:59.258Z,3.80
2018-09-09T08:35:27.323Z,3.00
2018-09-09T08:37:55.451Z,2.90
2018-09-09T08:40:23.545Z,2.77
2018-09-09T08:42:51.610Z,2.90
2018-09-09T08:45:19.745Z,3.03
2018-09-09T08:47:47.814Z,3.10
2018-09-09T08:50:15.878Z,3.07
2018-09-09T08:52:43.946Z,2.97
2018-09-09T08:55:12.054Z,3.30
2018-09-09T08:57:40.258Z,3.23
2018-09-09T09:00:08.280Z,2.87
2018-09-09T09:02:36.443Z,2.70
2018-09-09T09:05:04.579Z,2.47
2018-09-09T09:07:32.673Z,2.63
2018-09-09T09:10:00.801Z,2.70
2018-09-09T09:12:29.067Z,1.63
2018-09-09T09:14:57.147Z,1.70
2018-09-09T09:17:25.236Z,1.80
2018-09-09T09:19:53.343Z,2.10
2018-09-09T09:22:21.448Z,1.50
2018-09-09T09:24:49.505Z,1.87
2018-09-09T09:27:17.602Z,1.60
2018-09-09T09:29:50.965Z,2.07
2018-09-09T09:32:22.498Z,2.40
2018-09-09T09:34:50.726Z,2.20
2018-09-09T09:37:19.263Z,1.83
2018-09-09T09:39:47.492Z,2.30
2018-09-09T09:42:15.595Z,1.73
2018-09-09T09:44:44.246Z,1.80
2018-09-09T09:47:12.511Z,1.63
2018-09-09T09:49:40.734Z,1.50
2018-09-09T09:52:09.140Z,1.97
2018-09-09T09:54:37.859Z,2.00
2018-09-09T09:57:05.965Z,1.80
2018-09-09T09:59:34.039Z,1.50
2018-09-09T10:02:02.111Z,1.73
2018-09-09T10:04:30.203Z,1.60
2018-09-09T10:06:58.283Z,1.63
2018-09-09T10:09:26.350Z,1.63
2018-09-09T10:11:54.519Z,1.47
2018-09-09T10:14:22.660Z,1.83
2018-09-09T10:16:50.835Z,1.70
2018-09-09T10:19:19.110Z,1.43
2018-09-09T10:21:47.195Z,1.50
2018-09-09T10:24:15.310Z,2.03
2018-09-09T10:26:43.399Z,1.40
2018-09-09T10:29:11.529Z,1.90
2018-09-09T10:31:39.663Z,2.00
2018-09-09T10:34:07.719Z,1.60
2018-09-09T10:36:35.810Z,1.70
2018-09-09T10:39:04.907Z,1.70
2018-09-09T10:41:32.987Z,1.50
2018-09-09T10:44:01.063Z,2.00
2018-09-09T10:46:29.303Z,1.30
2018-09-09T10:48:57.311Z,1.27
2018-09-09T10:51:25.403Z,1.60
2018-09-09T10:53:53.488Z,1.63
2018-09-09T10:56:21.575Z,1.60
2018-09-09T10:58:49.703Z,1.50
2018-09-09T11:01:17.726Z,1.07
2018-09-09T11:03:45.792Z,1.50
2018-09-09T11:06:13.864Z,1.13
2018-09-09T11:08:41.928Z,1.10
2018-09-09T11:11:09.997Z,1.80
2018-09-09T11:13:38.093Z,1.17
2018-09-09T11:16:06.303Z,1.67
2018-09-09T11:18:34.395Z,1.50
2018-09-09T11:21:02.513Z,1.57
2018-09-09T11:23:30.614Z,1.43
2018-09-09T11:25:58.703Z,1.10
2018-09-09T11:28:26.806Z,0.87
2018-09-09T11:30:54.884Z,1.20
2018-09-09T11:33:22.955Z,1.73
2018-09-09T11:35:51.007Z,1.30
2018-09-09T11:38:19.090Z,1.40
2018-09-09T11:40:47.291Z,1.30
2018-09-09T11:43:15.304Z,1.33
2018-09-09T11:45:43.397Z,1.40
2018-09-09T11:48:11.488Z,1.13
2018-09-09T11:50:39.559Z,1.40
2018-09-09T11:53:07.664Z,1.33
2018-09-09T11:55:35.738Z,0.97
2018-09-09T11:58:03.835Z,0.80
2018-09-09T12:00:31.891Z,1.27
2018-09-09T12:02:59.963Z,1.00
2018-09-09T12:05:28.039Z,1.20
2018-09-09T12:07:56.140Z,1.10
2018-09-09T12:10:24.224Z,1.07
2018-09-09T12:12:52.340Z,1.53
2018-09-09T12:15:20.461Z,1.00
2018-09-09T12:17:48.547Z,1.07
2018-09-09T12:20:16.616Z,1.60
2018-09-09T12:22:44.709Z,1.33
2018-09-09T12:25:12.802Z,1.27
2018-09-09T12:27:40.867Z,1.20
2018-09-09T12:30:08.952Z,1.30
2018-09-09T12:32:37.071Z,1.43
2018-09-09T12:35:05.509Z,1.00
2018-09-09T12:37:33.591Z,1.20
2018-09-09T12:40:01.704Z,1.30
2018-09-09T12:42:29.806Z,1.33
2018-09-09T12:45:03.251Z,1.30
2018-09-09T12:47:36.762Z,1.23
2018-09-09T12:50:05.008Z,1.40
2018-09-09T12:52:33.097Z,1.40
2018-09-09T12:55:01.291Z,1.30
2018-09-09T12:57:29.417Z,1.13
2018-09-09T12:59:57.513Z,1.20
2018-09-09T13:02:25.735Z,1.30
2018-09-09T13:04:53.816Z,1.10
2018-09-09T13:07:21.935Z,1.60
2018-09-09T13:09:49.991Z,1.03
2018-09-09T13:12:18.085Z,1.10
2018-09-09T13:14:46.167Z,1.20
2018-09-09T13:17:14.267Z,0.90
2018-09-09T13:19:42.344Z,1.00
2018-09-09T13:22:10.407Z,0.90
2018-09-09T13:24:38.467Z,0.80
2018-09-09T13:27:06.579Z,1.03
2018-09-09T13:29:34.665Z,0.93
2018-09-09T13:32:02.744Z,1.07
2018-09-09T13:34:31.261Z,1.30
2018-09-09T13:36:59.552Z,1.20
2018-09-09T13:39:27.836Z,1.20
2018-09-09T13:41:56.055Z,0.80
2018-09-09T13:44:24.749Z,0.97
2018-09-09T13:46:55.117Z,1.10
2018-09-09T13:49:24.682Z,1.03
2018-09-09T13:51:53.019Z,0.97
2018-09-09T13:54:21.408Z,0.93
2018-09-09T13:56:49.678Z,1.20
2018-09-09T13:59:17.866Z,0.90
2018-09-09T14:01:46.225Z,1.20
2018-09-09T14:04:14.525Z,1.27
2018-09-09T14:06:44.190Z,0.97
2018-09-09T14:09:14.176Z,1.40
2018-09-09T14:11:45.609Z,0.80
2018-09-09T14:14:14.300Z,1.10
2018-09-09T14:16:42.640Z,1.27
2018-09-09T14:19:11.230Z,0.83
2018-09-09T14:21:39.766Z,0.97
2018-09-09T14:24:13.613Z,1.00
2018-09-09T14:26:41.705Z,1.10
2018-09-09T14:29:09.992Z,0.93
2018-09-09T14:31:40.803Z,0.80
2018-09-09T14:34:09.739Z,1.10
2018-09-09T14:36:38.222Z,1.20
2018-09-09T14:39:08.210Z,0.70
2018-09-09T14:41:36.737Z,2.17
2018-09-09T14:44:05.204Z,1.20
2018-09-09T14:46:34.116Z,1.10
2018-09-09T14:49:02.382Z,1.10
2018-09-09T14:51:30.648Z,1.03
2018-09-09T14:53:58.948Z,1.13
2018-09-09T14:56:27.039Z,1.10
2018-09-09T14:58:55.119Z,0.80
2018-09-09T15:01:23.214Z,0.83
2018-09-09T15:03:51.309Z,0.97
2018-09-09T15:06:19.526Z,1.20
2018-09-09T15:08:47.640Z,0.83
2018-09-09T15:11:15.801Z,1.13
2018-09-09T15:13:43.831Z,4.27
2018-09-09T15:16:11.902Z,1.43
2018-09-09T15:18:40.094Z,1.00
2018-09-09T15:21:08.167Z,1.57
2018-09-09T15:23:36.253Z,1.10
2018-09-09T15:26:04.392Z,1.10
2018-09-09T15:28:32.520Z,1.30
2018-09-09T15:31:00.592Z,1.00
2018-09-09T15:33:28.679Z,1.43
2018-09-09T15:35:56.763Z,1.10
2018-09-09T15:38:24.880Z,1.00
2018-09-09T15:40:53.000Z,1.30
2018-09-09T15:43:21.067Z,1.67
2018-09-09T15:45:49.137Z,1.70
2018-09-09T15:48:17.257Z,2.20
2018-09-09T15:50:45.451Z,1.23
2018-09-09T15:56:16.563Z,1.00
2018-09-09T15:58:44.651Z,1.10
2018-09-09T16:01:12.831Z,4.00
2018-09-09T16:03:40.908Z,1.50
2018-09-09T16:06:08.971Z,1.30
2018-09-09T16:08:37.041Z,1.47
2018-09-09T16:11:05.116Z,0.93
2018-09-09T16:13:33.214Z,1.07
2018-09-09T16:16:02.746Z,1.10
2018-09-09T16:18:30.811Z,1.87
2018-09-09T16:20:59.402Z,1.40
2018-09-09T16:23:27.599Z,1.33
2018-09-09T16:25:55.988Z,1.50
2018-09-09T16:28:24.831Z,1.00
2018-09-09T16:30:53.333Z,0.90
2018-09-09T16:33:23.373Z,1.10
2018-09-09T16:35:51.635Z,1.00
2018-09-09T16:38:19.815Z,1.27
2018-09-09T16:40:48.700Z,0.93
2018-09-09T16:43:17.703Z,1.17
2018-09-09T16:45:45.950Z,1.43
2018-09-09T16:48:14.163Z,1.20
2018-09-09T16:50:42.534Z,0.80
2018-09-09T16:53:13.744Z,0.97
2018-09-09T16:55:41.909Z,1.00
2018-09-09T16:58:10.694Z,1.03
2018-09-09T17:00:38.881Z,1.07
2018-09-09T17:03:07.519Z,1.30
2018-09-09T17:05:36.664Z,0.90
2018-09-09T17:08:05.003Z,1.20
2018-09-09T17:10:33.195Z,1.13
2018-09-09T17:13:01.408Z,1.00
2018-09-09T17:15:29.600Z,1.50
2018-09-09T17:17:57.788Z,1.10
2018-09-09T17:20:27.141Z,1.27
2018-09-09T17:25:50.744Z,1.40
2018-09-09T17:28:24.764Z,1.10
2018-09-09T17:32:09.236Z,1.40
2018-09-09T17:34:37.437Z,1.30
2018-09-09T17:37:05.695Z,1.27
2018-09-09T17:39:33.942Z,1.60
2018-09-09T17:42:02.894Z,1.70
2018-09-09T17:44:31.159Z,1.50
2018-09-09T17:46:59.390Z,1.20
2018-09-09T17:49:27.531Z,1.70
2018-09-09T17:51:55.762Z,1.60
2018-09-09T17:54:24.006Z,1.60
2018-09-09T17:56:52.189Z,1.33
2018-09-09T17:59:20.720Z,1.50
2018-09-09T18:01:49.012Z,1.50
2018-09-09T18:04:17.585Z,1.30
2018-09-09T18:06:45.876Z,1.17
2018-09-09T18:09:14.094Z,2.10
2018-09-09T18:11:42.613Z,1.33
2018-09-09T18:14:10.841Z,0.90
2018-09-09T18:16:39.012Z,1.40
2018-09-09T18:19:07.182Z,1.20
2018-09-09T18:21:35.715Z,1.00
2018-09-09T18:24:03.973Z,1.37
2018-09-09T18:26:32.273Z,1.10
2018-09-09T18:29:00.490Z,1.07
2018-09-09T18:31:29.217Z,1.40
2018-09-09T18:33:57.800Z,1.40
2018-09-09T18:36:25.990Z,1.27
2018-09-09T18:38:54.151Z,0.93
2018-09-09T18:41:23.023Z,1.43
2018-09-09T18:43:51.641Z,1.70
2018-09-09T18:46:19.880Z,2.20
2018-09-09T18:48:48.143Z,1.33
2018-09-09T18:51:16.366Z,2.13
2018-09-09T18:53:44.613Z,1.47
2018-09-09T18:56:12.911Z,1.70
2018-09-09T18:58:41.824Z,2.20
2018-09-09T19:01:10.381Z,1.60
2018-09-09T19:03:39.047Z,1.97
2018-09-09T19:06:07.336Z,1.80
2018-09-09T19:08:35.576Z,1.97
2018-09-09T19:11:03.825Z,1.53
2018-09-09T19:13:32.869Z,1.33
2018-09-09T19:16:01.086Z,1.23
2018-09-09T19:18:29.316Z,1.70
2018-09-09T19:20:57.807Z,1.57
2018-09-09T19:23:26.018Z,1.30
2018-09-09T19:25:54.221Z,1.57
2018-09-09T19:28:22.444Z,1.80
2018-09-09T19:30:51.068Z,1.93
2018-09-09T19:33:19.485Z,1.90
2018-09-09T19:35:47.702Z,1.33
2018-09-09T19:38:16.131Z,1.50
2018-09-09T19:40:44.466Z,1.70
2018-09-09T19:43:12.708Z,1.60
2018-09-09T19:45:40.974Z,1.93
2018-09-09T19:48:09.253Z,1.70
2018-09-09T19:50:38.369Z,1.80
2018-09-09T19:53:06.763Z,1.47
2018-09-09T19:55:35.038Z,1.53
2018-09-09T19:58:03.665Z,1.80
2018-09-09T20:00:32.207Z,1.83
2018-09-09T20:03:00.390Z,1.40
2018-09-09T20:05:28.780Z,1.63
2018-09-09T20:07:59.437Z,2.10
2018-09-09T20:10:27.964Z,1.90
2018-09-09T20:12:57.163Z,1.93
2018-09-09T20:15:25.677Z,1.60
2018-09-09T20:17:55.029Z,1.63
2018-09-09T20:20:23.675Z,1.60
2018-09-09T20:22:52.087Z,1.90
2018-09-09T20:25:20.353Z,1.97
2018-09-09T20:27:48.886Z,2.27
2018-09-09T20:30:17.419Z,2.07
2018-09-09T20:32:45.992Z,2.23
2018-09-09T20:35:14.745Z,1.93
2018-09-09T20:37:44.215Z,3.20
2018-09-09T20:40:12.482Z,1.70
2018-09-09T20:42:41.104Z,1.90
2018-09-09T20:45:09.467Z,2.07
2018-09-09T20:47:37.697Z,1.60
2018-09-09T20:50:06.035Z,1.97
2018-09-09T20:52:34.936Z,1.63
2018-09-09T20:55:03.187Z,1.90
2018-09-09T20:57:31.515Z,2.10
2018-09-09T20:59:59.780Z,2.07
2018-09-09T21:02:27.918Z,1.53
2018-09-09T21:04:56.904Z,1.83
2018-09-09T21:07:25.670Z,2.13
2018-09-09T21:09:53.823Z,4.20
2018-09-09T21:12:22.298Z,1.93
2018-09-09T21:14:50.542Z,1.40
2018-09-09T21:17:19.334Z,2.20
2018-09-09T21:19:47.647Z,2.00
2018-09-09T21:22:15.821Z,1.60
2018-09-09T21:24:44.295Z,2.33
2018-09-09T21:27:12.443Z,2.17
2018-09-09T21:29:40.675Z,2.00
2018-09-09T21:32:08.823Z,2.03
2018-09-09T21:34:38.972Z,1.93
2018-09-09T21:37:07.164Z,1.50
2018-09-09T21:39:36.564Z,1.90
2018-09-09T21:42:05.823Z,2.20
2018-09-09T21:44:34.412Z,2.00
2018-09-09T21:47:02.654Z,1.83
2018-09-09T21:49:30.860Z,1.90
2018-09-09T21:51:59.056Z,2.50
2018-09-09T21:54:27.339Z,1.80
2018-09-09T21:56:55.949Z,2.13
2018-09-09T21:59:24.200Z,2.10
2018-09-09T22:01:57.894Z,2.23
2018-09-09T22:04:26.160Z,1.90
2018-09-09T22:06:54.472Z,1.80
2018-09-09T22:09:22.621Z,1.40
2018-09-09T22:11:50.865Z,1.70
2018-09-09T22:14:19.023Z,1.83
2018-09-09T22:16:47.293Z,1.90
2018-09-09T22:19:15.508Z,1.83
2018-09-09T22:21:43.722Z,2.43
2018-09-09T22:24:11.904Z,2.47
2018-09-09T22:26:40.494Z,2.00
2018-09-09T22:29:08.680Z,2.03
2018-09-09T22:31:36.890Z,2.20
2018-09-09T22:34:05.114Z,2.97
2018-09-09T22:36:33.358Z,2.03
2018-09-09T22:39:02.030Z,2.30
2018-09-09T22:41:30.301Z,2.40
2018-09-09T22:43:58.495Z,2.70
2018-09-09T22:46:27.074Z,2.60
2018-09-09T22:48:55.265Z,2.30
2018-09-09T22:51:23.534Z,2.30
2018-09-09T22:53:51.857Z,2.97
2018-09-09T22:56:20.965Z,2.43
2018-09-09T22:58:49.164Z,2.93
2018-09-09T23:01:17.260Z,2.40
2018-09-09T23:03:45.321Z,2.00
2018-09-09T23:06:13.383Z,2.27
2018-09-09T23:08:41.511Z,2.70
2018-09-09T23:11:09.630Z,2.23
2018-09-09T23:13:37.734Z,2.00
2018-09-09T23:16:05.912Z,1.93
2018-09-09T23:18:33.979Z,2.57
2018-09-09T23:21:02.101Z,2.27
2018-09-09T23:23:30.191Z,2.40
2018-09-09T23:25:58.276Z,2.20
2018-09-09T23:28:26.375Z,2.20
2018-09-09T23:30:54.451Z,2.20
2018-09-09T23:33:22.547Z,2.33
2018-09-09T23:35:50.658Z,2.90
2018-09-09T23:38:19.139Z,2.07
2018-09-09T23:40:47.295Z,2.50
2018-09-09T23:43:15.379Z,2.40
2018-09-09T23:45:43.507Z,2.50
2018-09-09T23:48:11.607Z,2.20
2018-09-09T23:50:39.673Z,2.93
2018-09-09T23:53:08.080Z,2.37
2018-09-09T23:55:36.200Z,2.87
2018-09-09T23:58:04.296Z,2.30
